createdAt,value
2018-02-08T00:00:14.134Z,28.53
2018-02-08T00:02:41.712Z,30.43
2018-02-08T00:05:09.846Z,30.00
2018-02-08T00:07:37.783Z,28.87
2018-02-08T00:10:06.374Z,29.23
2018-02-08T00:12:33.930Z,30.20
2018-02-08T00:15:01.549Z,29.93
2018-02-08T00:17:29.174Z,28.47
2018-02-08T00:19:56.703Z,29.10
2018-02-08T00:22:35.902Z,29.63
2018-02-08T00:25:03.487Z,29.00
2018-02-08T00:27:30.981Z,29.90
2018-02-08T00:29:58.613Z,29.07
2018-02-08T00:32:26.141Z,29.77
2018-02-08T00:34:53.746Z,29.47
2018-02-08T00:37:21.706Z,31.27
2018-02-08T00:39:49.373Z,30.93
2018-02-08T00:42:17.135Z,30.03
2018-02-08T00:44:45.719Z,29.20
2018-02-08T00:47:13.241Z,31.80
2018-02-08T00:49:40.907Z,28.30
2018-02-08T00:52:08.395Z,31.63
2018-02-08T00:54:35.992Z,30.07
2018-02-08T00:57:03.591Z,28.83
2018-02-08T00:59:31.168Z,30.13
2018-02-08T01:01:58.705Z,30.00
2018-02-08T01:04:26.218Z,29.03
2018-02-08T01:06:53.746Z,28.50
2018-02-08T01:09:21.401Z,29.43
2018-02-08T01:11:49.071Z,29.57
2018-02-08T01:14:16.629Z,29.47
2018-02-08T01:16:44.124Z,30.60
2018-02-08T01:19:11.837Z,29.33
2018-02-08T01:21:39.349Z,31.10
2018-02-08T01:24:06.902Z,30.43
2018-02-08T01:26:34.460Z,30.40
2018-02-08T01:29:02.028Z,29.73
2018-02-08T01:31:29.552Z,30.07
2018-02-08T01:33:57.238Z,31.27
2018-02-08T01:36:24.793Z,31.37
2018-02-08T01:38:52.433Z,28.30
2018-02-08T01:41:20.022Z,31.13
2018-02-08T01:43:47.617Z,30.07
2018-02-08T01:46:15.152Z,31.73
2018-02-08T01:48:42.726Z,28.90
2018-02-08T01:51:10.227Z,31.60
2018-02-08T01:53:37.946Z,31.17
2018-02-08T01:56:05.442Z,31.37
2018-02-08T01:58:32.993Z,31.40
2018-02-08T02:01:00.509Z,31.93
2018-02-08T02:03:28.139Z,33.30
2018-02-08T02:05:55.674Z,33.43
2018-02-08T02:08:23.224Z,31.33
2018-02-08T02:10:50.781Z,29.47
2018-02-08T02:13:18.270Z,31.03
2018-02-08T02:15:45.765Z,30.90
2018-02-08T02:18:13.288Z,29.63
2018-02-08T02:20:40.815Z,30.37
2018-02-08T02:23:08.370Z,31.13
2018-02-08T02:25:35.891Z,31.23
2018-02-08T02:28:03.386Z,31.30
2018-02-08T02:30:30.886Z,29.80
2018-02-08T02:32:58.447Z,31.13
2018-02-08T02:35:25.992Z,31.37
2018-02-08T02:37:54.099Z,31.43
2018-02-08T02:40:21.617Z,29.90
2018-02-08T02:42:49.158Z,32.47
2018-02-08T02:45:16.656Z,32.27
2018-02-08T02:47:44.209Z,30.90
2018-02-08T02:50:11.761Z,30.47
2018-02-08T02:52:39.262Z,33.20
2018-02-08T02:55:06.905Z,31.60
2018-02-08T02:57:34.421Z,29.60
2018-02-08T03:00:02.035Z,32.07
2018-02-08T03:02:29.531Z,31.33
2018-02-08T03:04:57.297Z,32.10
2018-02-08T03:07:24.821Z,32.33
2018-02-08T03:09:52.359Z,33.03
2018-02-08T03:12:20.022Z,32.57
2018-02-08T03:14:47.590Z,31.90
2018-02-08T03:17:16.004Z,32.93
2018-02-08T03:19:43.629Z,31.70
2018-02-08T03:22:11.162Z,32.97
2018-02-08T03:24:38.670Z,31.67
2018-02-08T03:27:06.188Z,32.77
2018-02-08T03:29:33.706Z,30.60
2018-02-08T03:32:01.332Z,30.53
2018-02-08T03:34:28.904Z,30.83
2018-02-08T03:36:56.547Z,31.77
2018-02-08T03:39:24.093Z,30.40
2018-02-08T03:41:51.584Z,32.03
2018-02-08T03:44:19.125Z,30.73
2018-02-08T03:46:46.703Z,32.67
2018-02-08T03:49:14.213Z,31.90
2018-02-08T03:51:41.811Z,32.07
2018-02-08T03:54:09.351Z,30.50
2018-02-08T03:56:37.487Z,31.83
2018-02-08T03:59:04.981Z,31.23
2018-02-08T04:01:32.517Z,29.77
2018-02-08T04:04:00.040Z,31.60
2018-02-08T04:06:27.554Z,31.90
2018-02-08T04:08:55.570Z,31.97
2018-02-08T04:11:23.081Z,31.40
2018-02-08T04:13:50.663Z,31.07
2018-02-08T04:16:18.159Z,29.37
2018-02-08T04:18:45.704Z,31.07
2018-02-08T04:21:13.352Z,28.07
2018-02-08T04:23:40.895Z,31.90
2018-02-08T04:26:08.515Z,30.67
2018-02-08T04:28:36.019Z,32.43
2018-02-08T04:31:03.563Z,29.50
2018-02-08T04:33:31.062Z,31.37
2018-02-08T04:35:58.587Z,31.77
2018-02-08T04:38:37.759Z,30.67
2018-02-08T04:41:17.711Z,31.53
2018-02-08T04:43:57.088Z,31.37
2018-02-08T04:46:36.483Z,33.63
2018-02-08T04:49:04.019Z,31.03
2018-02-08T04:51:33.240Z,30.20
2018-02-08T04:54:00.809Z,31.50
2018-02-08T04:56:28.335Z,32.23
2018-02-08T04:58:55.943Z,30.83
2018-02-08T05:01:23.476Z,30.70
2018-02-08T05:03:50.973Z,30.97
2018-02-08T05:06:18.521Z,33.60
2018-02-08T05:08:46.117Z,31.87
2018-02-08T05:11:13.652Z,30.60
2018-02-08T05:13:41.206Z,31.83
2018-02-08T05:16:08.701Z,32.07
2018-02-08T05:18:36.235Z,30.80
2018-02-08T05:21:03.799Z,31.27
2018-02-08T05:23:31.401Z,31.43
2018-02-08T05:25:58.893Z,33.23
2018-02-08T05:28:26.429Z,31.17
2018-02-08T05:30:53.952Z,31.70
2018-02-08T05:33:21.476Z,32.20
2018-02-08T05:35:49.002Z,30.63
2018-02-08T05:38:16.526Z,33.77
2018-02-08T05:40:44.135Z,33.77
2018-02-08T05:43:11.649Z,32.17
2018-02-08T05:45:39.174Z,30.57
2018-02-08T05:48:12.609Z,32.20
2018-02-08T05:50:40.148Z,31.60
2018-02-08T05:53:13.099Z,31.20
2018-02-08T05:55:40.619Z,33.57
2018-02-08T05:58:08.257Z,31.90
2018-02-08T06:00:35.793Z,31.07
2018-02-08T06:03:03.299Z,33.97
2018-02-08T06:05:30.813Z,32.10
2018-02-08T06:07:58.356Z,34.53
2018-02-08T06:10:25.847Z,34.60
2018-02-08T06:12:53.393Z,32.30
2018-02-08T06:15:20.910Z,34.33
2018-02-08T06:17:48.476Z,34.37
2018-02-08T06:20:16.049Z,35.80
2018-02-08T06:22:43.546Z,35.17
2018-02-08T06:25:11.104Z,32.00
2018-02-08T06:27:38.604Z,33.07
2018-02-08T06:30:06.105Z,33.50
2018-02-08T06:32:33.643Z,33.10
2018-02-08T06:35:01.275Z,33.20
2018-02-08T06:37:28.797Z,35.07
2018-02-08T06:39:56.352Z,32.73
2018-02-08T06:42:23.877Z,32.70
2018-02-08T06:44:51.454Z,34.57
2018-02-08T06:47:18.924Z,34.03
2018-02-08T06:49:46.448Z,34.57
2018-02-08T06:52:13.937Z,32.93
2018-02-08T06:54:41.509Z,34.67
2018-02-08T06:57:09.069Z,33.20
2018-02-08T06:59:36.606Z,31.73
2018-02-08T07:02:04.142Z,33.13
2018-02-08T07:04:31.682Z,33.83
2018-02-08T07:06:59.200Z,34.83
2018-02-08T07:09:26.740Z,33.77
2018-02-08T07:11:54.268Z,34.67
2018-02-08T07:14:21.782Z,34.03
2018-02-08T07:16:49.318Z,35.53
2018-02-08T07:19:16.879Z,36.07
2018-02-08T07:21:44.400Z,38.23
2018-02-08T07:24:11.925Z,36.97
2018-02-08T07:26:40.194Z,35.33
2018-02-08T07:29:07.723Z,34.57
2018-02-08T07:31:35.270Z,34.53
2018-02-08T07:34:02.800Z,35.00
2018-02-08T07:36:30.377Z,36.17
2018-02-08T07:38:57.943Z,34.80
2018-02-08T07:41:25.436Z,34.10
2018-02-08T07:43:52.977Z,36.00
2018-02-08T07:46:20.510Z,35.47
2018-02-08T07:48:48.065Z,37.70
2018-02-08T07:51:15.701Z,35.47
2018-02-08T07:53:43.212Z,36.50
2018-02-08T07:56:10.756Z,39.80
2018-02-08T07:58:38.325Z,38.43
2018-02-08T08:01:05.830Z,36.60
2018-02-08T08:03:33.337Z,38.40
2018-02-08T08:06:00.898Z,38.27
2018-02-08T08:08:28.419Z,36.70
2018-02-08T08:10:56.321Z,38.73
2018-02-08T08:13:23.846Z,37.47
2018-02-08T08:15:51.408Z,39.30
2018-02-08T08:18:18.932Z,39.33
2018-02-08T08:20:46.445Z,39.43
2018-02-08T08:23:13.983Z,41.00
2018-02-08T08:25:41.486Z,39.10
2018-02-08T08:28:08.989Z,38.73
2018-02-08T08:30:36.529Z,39.17
2018-02-08T08:33:04.064Z,40.50
2018-02-08T08:35:31.579Z,38.10
2018-02-08T08:37:59.095Z,39.90
2018-02-08T08:40:26.685Z,38.13
2018-02-08T08:42:54.180Z,40.03
2018-02-08T08:45:21.705Z,38.03
2018-02-08T08:47:49.210Z,37.70
2018-02-08T08:50:16.705Z,40.30
2018-02-08T08:52:44.226Z,37.20
2018-02-08T08:55:11.731Z,39.07
2018-02-08T08:57:39.217Z,38.53
2018-02-08T09:00:06.744Z,37.53
2018-02-08T09:02:34.232Z,40.03
2018-02-08T09:05:01.732Z,37.63
2018-02-08T09:07:29.232Z,38.93
2018-02-08T09:09:56.741Z,39.53
2018-02-08T09:12:24.271Z,38.43
2018-02-08T09:14:51.778Z,37.13
2018-02-08T09:17:19.280Z,37.23
2018-02-08T09:19:46.800Z,38.03
2018-02-08T09:22:14.325Z,37.33
2018-02-08T09:24:41.857Z,36.27
2018-02-08T09:27:09.358Z,39.00
2018-02-08T09:29:36.884Z,39.40
2018-02-08T09:32:04.412Z,38.60
2018-02-08T09:34:31.950Z,38.30
2018-02-08T09:36:59.530Z,38.57
2018-02-08T09:39:27.108Z,39.67
2018-02-08T09:41:54.624Z,39.10
2018-02-08T09:44:22.165Z,40.57
2018-02-08T09:46:49.669Z,38.60
2018-02-08T09:49:17.193Z,38.80
2018-02-08T09:51:51.512Z,38.60
2018-02-08T09:54:19.113Z,38.87
2018-02-08T09:56:46.651Z,38.37
2018-02-08T09:59:14.141Z,39.10
2018-02-08T10:01:41.644Z,40.20
2018-02-08T10:04:09.169Z,38.03
2018-02-08T10:06:36.693Z,39.90
2018-02-08T10:09:04.221Z,38.50
2018-02-08T10:11:32.323Z,40.43
2018-02-08T10:13:59.845Z,40.67
2018-02-08T10:16:27.382Z,39.13
2018-02-08T10:18:54.895Z,39.17
2018-02-08T10:21:22.454Z,38.93
2018-02-08T10:23:50.010Z,40.13
2018-02-08T10:26:17.580Z,39.43
2018-02-08T10:28:45.092Z,41.00
2018-02-08T10:31:12.569Z,38.50
2018-02-08T10:33:40.278Z,40.17
2018-02-08T10:36:08.527Z,40.17
2018-02-08T10:38:36.059Z,40.13
2018-02-08T10:41:03.878Z,39.17
2018-02-08T10:43:31.434Z,40.43
2018-02-08T10:45:59.243Z,41.13
2018-02-08T10:48:27.546Z,40.10
2018-02-08T10:50:55.182Z,39.23
2018-02-08T10:53:22.702Z,40.17
2018-02-08T10:55:50.200Z,40.43
2018-02-08T10:58:17.698Z,40.00
2018-02-08T11:00:45.240Z,39.93
2018-02-08T11:03:12.926Z,39.50
2018-02-08T11:05:40.440Z,41.37
2018-02-08T11:08:07.977Z,39.97
2018-02-08T11:10:35.580Z,38.13
2018-02-08T11:13:03.112Z,37.07
2018-02-08T11:15:30.622Z,36.33
2018-02-08T11:17:58.117Z,36.50
2018-02-08T11:20:25.640Z,36.50
2018-02-08T11:22:53.131Z,37.53
2018-02-08T11:25:20.687Z,38.20
2018-02-08T11:27:48.213Z,37.57
2018-02-08T11:30:15.719Z,38.97
2018-02-08T11:32:43.229Z,37.67
2018-02-08T11:35:10.785Z,35.53
2018-02-08T11:37:38.273Z,34.97
2018-02-08T11:40:05.763Z,35.30
2018-02-08T11:42:33.315Z,34.57
2018-02-08T11:45:00.982Z,34.77
2018-02-08T11:47:28.473Z,37.40
2018-02-08T11:49:55.997Z,37.97
2018-02-08T11:52:23.550Z,36.20
2018-02-08T11:54:51.182Z,36.20
2018-02-08T11:57:18.716Z,37.43
2018-02-08T11:59:46.281Z,36.80
2018-02-08T12:02:13.790Z,38.50
2018-02-08T12:04:41.310Z,38.00
2018-02-08T12:07:08.848Z,35.33
2018-02-08T12:09:36.484Z,37.67
2018-02-08T12:12:04.191Z,36.10
2018-02-08T12:14:31.933Z,37.73
2018-02-08T12:16:59.432Z,34.83
2018-02-08T12:19:26.967Z,33.37
2018-02-08T12:21:54.634Z,32.53
2018-02-08T12:24:22.133Z,31.63
2018-02-08T12:26:49.728Z,33.27
2018-02-08T12:29:17.478Z,33.07
2018-02-08T12:31:44.980Z,30.90
2018-02-08T12:34:12.537Z,27.80
2018-02-08T12:36:40.339Z,26.97
2018-02-08T12:39:07.861Z,28.27
2018-02-08T12:41:35.512Z,28.17
2018-02-08T12:44:03.182Z,28.53
2018-02-08T12:46:30.670Z,26.60
2018-02-08T12:48:58.913Z,28.83
2018-02-08T12:51:26.468Z,30.73
2018-02-08T12:53:53.962Z,31.30
2018-02-08T12:56:21.518Z,29.60
2018-02-08T12:58:49.059Z,27.40
2018-02-08T13:01:16.581Z,25.47
2018-02-08T13:03:44.104Z,23.60
2018-02-08T13:06:11.634Z,23.03
2018-02-08T13:08:39.133Z,23.77
2018-02-08T13:11:06.666Z,19.97
2018-02-08T13:13:34.195Z,19.30
2018-02-08T13:16:01.686Z,20.30
2018-02-08T13:18:32.122Z,19.80
2018-02-08T13:20:59.633Z,21.43
2018-02-08T13:23:27.268Z,22.77
2018-02-08T13:25:54.796Z,22.67
2018-02-08T13:28:22.313Z,22.33
2018-02-08T13:30:49.863Z,23.40
2018-02-08T13:33:17.355Z,26.53
2018-02-08T13:35:44.890Z,27.00
2018-02-08T13:38:12.428Z,28.03
2018-02-08T13:40:47.336Z,31.27
2018-02-08T13:43:14.847Z,33.80
2018-02-08T13:45:42.375Z,35.47
2018-02-08T13:48:11.892Z,34.60
2018-02-08T13:50:39.377Z,37.03
2018-02-08T13:53:12.471Z,37.87
2018-02-08T13:58:56.014Z,38.07
2018-02-08T14:01:25.736Z,39.07
2018-02-08T14:03:53.273Z,39.13
2018-02-08T14:06:20.748Z,38.83
2018-02-08T14:08:48.221Z,39.13
2018-02-08T14:11:15.722Z,38.23
2018-02-08T14:13:43.283Z,37.70
2018-02-08T14:16:10.796Z,39.33
2018-02-08T14:18:38.468Z,38.77
2018-02-08T14:21:05.956Z,39.20
2018-02-08T14:23:33.455Z,39.63
2018-02-08T14:26:00.986Z,35.30
2018-02-08T14:28:28.529Z,36.80
2018-02-08T14:30:56.094Z,39.23
2018-02-08T14:33:23.607Z,35.70
2018-02-08T14:35:51.110Z,34.37
2018-02-08T14:38:18.690Z,31.90
2018-02-08T14:40:46.205Z,32.10
2018-02-08T14:43:13.702Z,31.53
2018-02-08T14:45:41.240Z,32.33
2018-02-08T14:48:08.740Z,33.07
2018-02-08T14:50:36.315Z,33.10
2018-02-08T14:53:03.827Z,33.30
2018-02-08T14:55:31.389Z,32.47
2018-02-08T14:57:58.935Z,34.17
2018-02-08T15:00:26.484Z,32.60
2018-02-08T15:02:54.051Z,32.37
2018-02-08T15:05:21.562Z,31.57
2018-02-08T15:07:49.116Z,34.47
2018-02-08T15:10:16.669Z,34.47
2018-02-08T15:12:44.266Z,34.40
2018-02-08T15:15:11.775Z,31.03
2018-02-08T15:17:39.315Z,33.70
2018-02-08T15:20:06.935Z,33.73
2018-02-08T15:22:34.427Z,34.73
2018-02-08T15:25:02.000Z,35.70
2018-02-08T15:27:29.548Z,32.07
2018-02-08T15:29:57.104Z,33.20
2018-02-08T15:32:24.639Z,33.27
2018-02-08T15:34:52.249Z,33.20
2018-02-08T15:37:19.770Z,34.67
2018-02-08T15:39:47.317Z,33.53
2018-02-08T15:42:14.821Z,34.23
2018-02-08T15:44:42.437Z,34.27
2018-02-08T15:47:09.962Z,34.27
2018-02-08T15:49:37.466Z,34.10
2018-02-08T15:52:04.988Z,32.97
2018-02-08T15:54:32.524Z,32.90
2018-02-08T15:57:00.033Z,34.33
2018-02-08T15:59:27.545Z,34.40
2018-02-08T16:01:55.151Z,35.43
2018-02-08T16:04:22.771Z,36.33
2018-02-08T16:06:50.296Z,32.80
2018-02-08T16:09:17.952Z,32.93
2018-02-08T16:11:45.626Z,35.37
2018-02-08T16:14:13.122Z,33.60
2018-02-08T16:16:40.666Z,34.93
2018-02-08T16:19:08.209Z,34.97
2018-02-08T16:21:35.739Z,35.23
2018-02-08T16:24:03.326Z,34.13
2018-02-08T16:26:30.854Z,34.33
2018-02-08T16:28:58.349Z,35.80
2018-02-08T16:31:25.856Z,35.13
2018-02-08T16:33:54.166Z,35.97
2018-02-08T16:36:21.671Z,36.00
2018-02-08T16:38:49.216Z,34.50
2018-02-08T16:41:16.758Z,35.30
2018-02-08T16:43:44.305Z,37.40
2018-02-08T16:46:11.860Z,37.07
2018-02-08T16:48:39.402Z,37.60
2018-02-08T16:51:06.988Z,35.97
2018-02-08T16:53:34.800Z,33.87
2018-02-08T16:56:02.605Z,37.83
2018-02-08T16:58:30.174Z,35.77
2018-02-08T17:00:57.736Z,38.37
2018-02-08T17:03:25.363Z,34.50
2018-02-08T17:05:52.859Z,36.90
2018-02-08T17:08:20.376Z,37.27
2018-02-08T17:10:47.917Z,38.67
2018-02-08T17:13:15.440Z,38.17
2018-02-08T17:15:42.979Z,36.30
2018-02-08T17:18:10.485Z,37.10
2018-02-08T17:20:38.316Z,34.87
2018-02-08T17:23:05.841Z,37.23
2018-02-08T17:25:33.395Z,36.77
2018-02-08T17:28:00.946Z,37.33
2018-02-08T17:30:28.462Z,38.17
2018-02-08T17:32:56.316Z,37.20
2018-02-08T17:35:23.909Z,37.93
2018-02-08T17:37:51.439Z,37.97
2018-02-08T17:40:19.064Z,36.97
2018-02-08T17:42:46.615Z,37.23
2018-02-08T17:45:14.125Z,39.47
2018-02-08T17:47:44.826Z,37.57
2018-02-08T17:50:12.775Z,36.70
2018-02-08T17:52:40.319Z,38.50
2018-02-08T17:55:07.875Z,38.00
2018-02-08T17:57:35.431Z,37.50
2018-02-08T18:00:02.980Z,40.67
2018-02-08T18:02:30.555Z,40.43
2018-02-08T18:04:58.104Z,40.50
2018-02-08T18:07:25.618Z,39.50
2018-02-08T18:09:53.152Z,40.23
2018-02-08T18:12:20.661Z,39.60
2018-02-08T18:14:48.208Z,41.43
2018-02-08T18:17:15.798Z,41.83
2018-02-08T18:19:43.451Z,40.73
2018-02-08T18:22:10.983Z,40.73
2018-02-08T18:24:38.493Z,43.13
2018-02-08T18:27:06.054Z,40.97
2018-02-08T18:29:33.574Z,44.67
2018-02-08T18:32:01.669Z,46.53
2018-02-08T18:34:29.227Z,46.27
2018-02-08T18:36:56.740Z,43.83
2018-02-08T18:39:24.230Z,46.03
2018-02-08T18:41:52.080Z,47.30
2018-02-08T18:44:19.777Z,46.53
2018-02-08T18:46:48.687Z,45.77
2018-02-08T18:49:16.428Z,48.83
2018-02-08T18:51:45.549Z,47.10
2018-02-08T18:54:13.482Z,47.83
2018-02-08T18:56:41.023Z,46.97
2018-02-08T18:59:08.560Z,45.10
2018-02-08T19:01:36.098Z,48.47
2018-02-08T19:04:04.504Z,48.23
2018-02-08T19:06:32.625Z,47.03
2018-02-08T19:09:00.164Z,47.70
2018-02-08T19:11:27.668Z,45.93
2018-02-08T19:13:55.382Z,46.77
2018-02-08T19:16:22.917Z,47.83
2018-02-08T19:18:51.109Z,47.93
2018-02-08T19:21:18.673Z,48.03
2018-02-08T19:23:46.503Z,46.20
2018-02-08T19:26:14.368Z,48.07
2018-02-08T19:28:41.993Z,48.17
2018-02-08T19:31:09.551Z,48.27
2018-02-08T19:33:37.075Z,48.27
2018-02-08T19:36:04.638Z,48.33
2018-02-08T19:38:32.890Z,47.07
2018-02-08T19:41:00.404Z,48.50
2018-02-08T19:43:27.968Z,49.63
2018-02-08T19:45:55.465Z,49.40
2018-02-08T19:48:22.997Z,48.03
2018-02-08T19:50:50.596Z,50.30
2018-02-08T19:53:18.162Z,48.90
2018-02-08T19:55:45.691Z,49.33
2018-02-08T19:58:13.236Z,51.20
2018-02-08T20:00:40.774Z,52.13
2018-02-08T20:03:08.840Z,51.67
2018-02-08T20:05:36.617Z,50.30
2018-02-08T20:08:04.125Z,48.77
2018-02-08T20:10:31.653Z,52.67
2018-02-08T20:12:59.142Z,50.63
2018-02-08T20:15:37.460Z,50.40
2018-02-08T20:18:05.052Z,50.17
2018-02-08T20:20:32.605Z,48.60
2018-02-08T20:23:00.136Z,49.67
2018-02-08T20:25:33.219Z,47.93
2018-02-08T20:28:00.772Z,52.97
2018-02-08T20:30:28.344Z,50.30
2018-02-08T20:32:55.937Z,53.53
2018-02-08T20:35:23.489Z,51.03
2018-02-08T20:37:51.005Z,50.03
2018-02-08T20:40:32.659Z,50.30
2018-02-08T20:43:05.836Z,50.67
2018-02-08T20:45:33.440Z,50.73
2018-02-08T20:48:01.024Z,51.33
2018-02-08T20:50:28.546Z,50.37
2018-02-08T20:52:56.144Z,51.23
2018-02-08T20:55:23.723Z,50.10
2018-02-08T20:57:51.278Z,51.47
2018-02-08T21:00:18.870Z,50.90
2018-02-08T21:02:46.391Z,50.87
2018-02-08T21:05:13.968Z,49.83
2018-02-08T21:07:41.471Z,51.30
2018-02-08T21:10:09.023Z,52.50
2018-02-08T21:12:36.548Z,51.57
2018-02-08T21:15:04.159Z,52.00
2018-02-08T21:17:31.825Z,49.37
2018-02-08T21:19:59.378Z,50.13
2018-02-08T21:22:26.865Z,51.47
2018-02-08T21:24:54.430Z,50.87
2018-02-08T21:27:21.979Z,49.53
2018-02-08T21:29:49.593Z,49.70
2018-02-08T21:32:17.114Z,51.27
2018-02-08T21:34:44.673Z,50.07
2018-02-08T21:37:12.189Z,54.20
2018-02-08T21:39:39.740Z,50.40
2018-02-08T21:42:07.383Z,51.17
2018-02-08T21:44:34.909Z,51.37
2018-02-08T21:47:02.454Z,51.37
2018-02-08T21:49:29.974Z,52.37
2018-02-08T21:51:57.509Z,50.00
2018-02-08T21:54:25.083Z,51.23
2018-02-08T21:56:52.669Z,50.27
2018-02-08T21:59:20.211Z,51.47
2018-02-08T22:01:47.788Z,50.37
2018-02-08T22:04:15.386Z,50.73
2018-02-08T22:06:42.906Z,51.97
2018-02-08T22:09:10.465Z,52.83
2018-02-08T22:11:37.973Z,51.47
2018-02-08T22:14:05.504Z,51.10
2018-02-08T22:16:33.024Z,51.63
2018-02-08T22:19:00.648Z,52.40
2018-02-08T22:21:28.236Z,50.83
2018-02-08T22:23:56.504Z,51.53
2018-02-08T22:26:24.044Z,52.00
2018-02-08T22:28:51.553Z,51.70
2018-02-08T22:31:19.065Z,50.10
2018-02-08T22:33:46.630Z,52.27
2018-02-08T22:36:14.149Z,53.20
2018-02-08T22:38:47.735Z,51.67
2018-02-08T22:41:15.264Z,51.67
2018-02-08T22:43:42.802Z,52.47
2018-02-08T22:46:10.363Z,52.80
2018-02-08T22:48:37.982Z,51.87
2018-02-08T22:51:05.580Z,51.83
2018-02-08T22:53:33.127Z,52.10
2018-02-08T22:56:00.674Z,53.43
2018-02-08T22:58:28.252Z,55.10
2018-02-08T23:00:55.777Z,54.07
2018-02-08T23:03:23.303Z,54.70
2018-02-08T23:05:50.836Z,51.80
2018-02-08T23:08:18.390Z,53.80
2018-02-08T23:10:46.016Z,54.60
2018-02-08T23:13:13.584Z,55.20
2018-02-08T23:15:41.077Z,54.67
2018-02-08T23:18:08.642Z,51.80
2018-02-08T23:20:36.306Z,54.33
2018-02-08T23:23:03.849Z,53.40
2018-02-08T23:25:31.536Z,57.77
2018-02-08T23:27:59.280Z,54.23
2018-02-08T23:30:27.376Z,52.80
2018-02-08T23:32:54.870Z,53.77
2018-02-08T23:35:22.386Z,55.13
2018-02-08T23:37:50.349Z,52.23
2018-02-08T23:40:17.950Z,56.33
2018-02-08T23:42:45.520Z,54.93
2018-02-08T23:45:13.105Z,57.23
2018-02-08T23:47:40.666Z,54.17
2018-02-08T23:50:08.395Z,52.27
2018-02-08T23:52:36.016Z,55.47
2018-02-08T23:55:03.718Z,53.77
2018-02-08T23:57:31.282Z,55.40
2018-02-08T23:59:58.821Z,57.17
